sensor_id;sensor_type;location;lat;lon;timestamp;P1;durP1;ratioP1;P2;durP2;ratioP2
40981;SDS011;26708;50.304;19.028;2022-10-19T00:02:48;39.33;;;25.13;;
40981;SDS011;26708;50.304;19.028;2022-10-19T00:05:49;20.00;;;13.32;;
40981;SDS011;26708;50.304;19.028;2022-10-19T00:09:00;14.75;;;10.35;;
40981;SDS011;26708;50.304;19.028;2022-10-19T00:12:04;15.23;;;8.90;;
40981;SDS011;26708;50.304;19.028;2022-10-19T00:15:05;8.55;;;6.50;;
40981;SDS011;26708;50.304;19.028;2022-10-19T00:18:07;6.70;;;4.88;;
40981;SDS011;26708;50.304;19.028;2022-10-19T00:21:09;6.82;;;4.70;;
40981;SDS011;26708;50.304;19.028;2022-10-19T00:24:11;6.15;;;4.45;;
40981;SDS011;26708;50.304;19.028;2022-10-19T00:27:12;8.55;;;6.00;;
40981;SDS011;26708;50.304;19.028;2022-10-19T00:30:13;9.23;;;6.05;;
40981;SDS011;26708;50.304;19.028;2022-10-19T00:33:14;8.65;;;5.63;;
40981;SDS011;26708;50.304;19.028;2022-10-19T00:36:22;4.88;;;3.95;;
40981;SDS011;26708;50.304;19.028;2022-10-19T00:39:25;8.63;;;3.65;;
40981;SDS011;26708;50.304;19.028;2022-10-19T00:42:25;6.63;;;3.95;;
40981;SDS011;26708;50.304;19.028;2022-10-19T00:45:26;6.18;;;3.70;;
40981;SDS011;26708;50.304;19.028;2022-10-19T00:48:29;7.00;;;4.47;;
40981;SDS011;26708;50.304;19.028;2022-10-19T00:51:32;8.50;;;5.38;;
40981;SDS011;26708;50.304;19.028;2022-10-19T00:54:37;8.02;;;5.07;;
40981;SDS011;26708;50.304;19.028;2022-10-19T00:57:40;7.60;;;5.25;;
40981;SDS011;26708;50.304;19.028;2022-10-19T01:00:41;10.02;;;4.82;;
40981;SDS011;26708;50.304;19.028;2022-10-19T01:03:42;8.82;;;5.60;;
40981;SDS011;26708;50.304;19.028;2022-10-19T01:06:44;23.50;;;13.88;;
40981;SDS011;26708;50.304;19.028;2022-10-19T01:09:45;28.38;;;18.58;;
40981;SDS011;26708;50.304;19.028;2022-10-19T01:16:47;13.85;;;10.80;;
40981;SDS011;26708;50.304;19.028;2022-10-19T01:32:49;6.45;;;4.78;;
40981;SDS011;26708;50.304;19.028;2022-10-19T01:46:37;11.57;;;6.45;;
40981;SDS011;26708;50.304;19.028;2022-10-19T01:49:41;9.85;;;6.93;;
40981;SDS011;26708;50.304;19.028;2022-10-19T01:52:49;11.73;;;7.40;;
40981;SDS011;26708;50.304;19.028;2022-10-19T01:55:51;12.48;;;7.75;;
40981;SDS011;26708;50.304;19.028;2022-10-19T01:58:54;16.23;;;8.88;;
40981;SDS011;26708;50.304;19.028;2022-10-19T02:01:58;17.97;;;9.47;;
40981;SDS011;26708;50.304;19.028;2022-10-19T02:04:59;18.60;;;10.43;;
40981;SDS011;26708;50.304;19.028;2022-10-19T02:08:03;21.88;;;11.35;;
40981;SDS011;26708;50.304;19.028;2022-10-19T02:11:11;19.95;;;11.50;;
40981;SDS011;26708;50.304;19.028;2022-10-19T02:14:13;23.33;;;13.50;;
40981;SDS011;26708;50.304;19.028;2022-10-19T02:17:17;22.73;;;14.43;;
40981;SDS011;26708;50.304;19.028;2022-10-19T02:23:23;22.85;;;13.73;;
40981;SDS011;26708;50.304;19.028;2022-10-19T02:26:26;21.23;;;14.48;;
40981;SDS011;26708;50.304;19.028;2022-10-19T02:29:27;22.15;;;14.15;;
40981;SDS011;26708;50.304;19.028;2022-10-19T02:32:28;19.38;;;12.77;;
40981;SDS011;26708;50.304;19.028;2022-10-19T02:35:29;17.50;;;12.40;;
40981;SDS011;26708;50.304;19.028;2022-10-19T02:38:30;16.98;;;11.13;;
40981;SDS011;26708;50.304;19.028;2022-10-19T02:41:38;15.13;;;10.63;;
40981;SDS011;26708;50.304;19.028;2022-10-19T02:44:42;15.82;;;10.40;;
40981;SDS011;26708;50.304;19.028;2022-10-19T02:47:48;16.63;;;11.23;;
40981;SDS011;26708;50.304;19.028;2022-10-19T02:50:52;15.68;;;10.75;;
40981;SDS011;26708;50.304;19.028;2022-10-19T02:53:53;16.40;;;11.10;;
40981;SDS011;26708;50.304;19.028;2022-10-19T02:56:54;16.77;;;11.77;;
40981;SDS011;26708;50.304;19.028;2022-10-19T02:59:56;17.42;;;11.68;;
40981;SDS011;26708;50.304;19.028;2022-10-19T03:02:57;15.65;;;10.27;;
40981;SDS011;26708;50.304;19.028;2022-10-19T03:05:58;14.07;;;9.63;;
40981;SDS011;26708;50.304;19.028;2022-10-19T03:08:59;12.73;;;9.10;;
40981;SDS011;26708;50.304;19.028;2022-10-19T03:11:59;13.63;;;7.93;;
40981;SDS011;26708;50.304;19.028;2022-10-19T03:15:00;12.05;;;7.55;;
40981;SDS011;26708;50.304;19.028;2022-10-19T03:18:01;10.10;;;6.72;;
40981;SDS011;26708;50.304;19.028;2022-10-19T03:21:03;9.82;;;6.75;;
40981;SDS011;26708;50.304;19.028;2022-10-19T03:24:06;8.07;;;5.65;;
40981;SDS011;26708;50.304;19.028;2022-10-19T03:27:06;10.70;;;5.65;;
40981;SDS011;26708;50.304;19.028;2022-10-19T03:30:07;8.80;;;5.55;;
40981;SDS011;26708;50.304;19.028;2022-10-19T03:33:09;10.65;;;5.47;;
40981;SDS011;26708;50.304;19.028;2022-10-19T03:36:23;9.43;;;5.60;;
40981;SDS011;26708;50.304;19.028;2022-10-19T03:39:34;9.25;;;6.18;;
40981;SDS011;26708;50.304;19.028;2022-10-19T03:42:35;10.38;;;6.30;;
40981;SDS011;26708;50.304;19.028;2022-10-19T03:45:35;8.98;;;5.38;;
40981;SDS011;26708;50.304;19.028;2022-10-19T03:48:36;10.68;;;6.63;;
40981;SDS011;26708;50.304;19.028;2022-10-19T03:51:37;10.13;;;6.57;;
40981;SDS011;26708;50.304;19.028;2022-10-19T03:54:38;9.70;;;6.40;;
40981;SDS011;26708;50.304;19.028;2022-10-19T03:57:38;8.63;;;6.47;;
40981;SDS011;26708;50.304;19.028;2022-10-19T04:00:40;9.32;;;6.35;;
40981;SDS011;26708;50.304;19.028;2022-10-19T04:03:40;8.18;;;6.28;;
40981;SDS011;26708;50.304;19.028;2022-10-19T04:06:42;11.88;;;6.90;;
40981;SDS011;26708;50.304;19.028;2022-10-19T04:09:45;9.75;;;6.00;;
40981;SDS011;26708;50.304;19.028;2022-10-19T04:12:45;13.80;;;6.55;;
40981;SDS011;26708;50.304;19.028;2022-10-19T04:15:46;11.32;;;6.40;;
40981;SDS011;26708;50.304;19.028;2022-10-19T04:18:47;9.57;;;6.60;;
40981;SDS011;26708;50.304;19.028;2022-10-19T04:21:48;9.10;;;6.30;;
40981;SDS011;26708;50.304;19.028;2022-10-19T04:24:49;9.95;;;6.60;;
40981;SDS011;26708;50.304;19.028;2022-10-19T04:27:50;9.60;;;6.53;;
40981;SDS011;26708;50.304;19.028;2022-10-19T04:30:50;10.43;;;7.00;;
40981;SDS011;26708;50.304;19.028;2022-10-19T04:33:51;13.25;;;7.20;;
40981;SDS011;26708;50.304;19.028;2022-10-19T04:36:53;11.25;;;7.25;;
40981;SDS011;26708;50.304;19.028;2022-10-19T04:39:54;12.32;;;6.30;;
40981;SDS011;26708;50.304;19.028;2022-10-19T04:42:54;9.32;;;6.38;;
40981;SDS011;26708;50.304;19.028;2022-10-19T04:45:55;11.35;;;6.45;;
40981;SDS011;26708;50.304;19.028;2022-10-19T04:48:56;9.20;;;5.93;;
40981;SDS011;26708;50.304;19.028;2022-10-19T04:51:57;10.52;;;5.93;;
40981;SDS011;26708;50.304;19.028;2022-10-19T04:54:58;10.63;;;5.75;;
40981;SDS011;26708;50.304;19.028;2022-10-19T04:57:59;10.02;;;5.80;;
40981;SDS011;26708;50.304;19.028;2022-10-19T05:01:07;10.68;;;6.05;;
40981;SDS011;26708;50.304;19.028;2022-10-19T05:04:12;9.25;;;5.90;;
40981;SDS011;26708;50.304;19.028;2022-10-19T05:07:13;12.38;;;6.38;;
40981;SDS011;26708;50.304;19.028;2022-10-19T05:10:13;16.58;;;11.25;;
40981;SDS011;26708;50.304;19.028;2022-10-19T05:13:14;13.82;;;8.90;;
40981;SDS011;26708;50.304;19.028;2022-10-19T05:16:16;30.45;;;10.30;;
40981;SDS011;26708;50.304;19.028;2022-10-19T05:19:19;17.70;;;11.00;;
40981;SDS011;26708;50.304;19.028;2022-10-19T05:22:20;11.98;;;9.05;;
40981;SDS011;26708;50.304;19.028;2022-10-19T05:25:20;14.23;;;8.30;;
40981;SDS011;26708;50.304;19.028;2022-10-19T05:28:21;19.52;;;10.32;;
40981;SDS011;26708;50.304;19.028;2022-10-19T05:31:26;16.65;;;10.57;;
40981;SDS011;26708;50.304;19.028;2022-10-19T05:34:28;19.05;;;9.52;;
40981;SDS011;26708;50.304;19.028;2022-10-19T05:37:29;15.55;;;8.43;;
40981;SDS011;26708;50.304;19.028;2022-10-19T05:40:29;18.92;;;7.75;;
40981;SDS011;26708;50.304;19.028;2022-10-19T05:43:31;12.82;;;7.03;;
40981;SDS011;26708;50.304;19.028;2022-10-19T05:46:32;15.27;;;8.38;;
40981;SDS011;26708;50.304;19.028;2022-10-19T05:49:33;12.95;;;8.40;;
40981;SDS011;26708;50.304;19.028;2022-10-19T05:52:35;15.93;;;10.73;;
40981;SDS011;26708;50.304;19.028;2022-10-19T05:55:36;18.58;;;10.63;;
40981;SDS011;26708;50.304;19.028;2022-10-19T05:58:36;20.00;;;10.65;;
40981;SDS011;26708;50.304;19.028;2022-10-19T06:01:37;17.23;;;8.85;;
40981;SDS011;26708;50.304;19.028;2022-10-19T06:04:38;16.75;;;9.23;;
40981;SDS011;26708;50.304;19.028;2022-10-19T06:07:39;20.20;;;12.00;;
40981;SDS011;26708;50.304;19.028;2022-10-19T06:10:40;19.08;;;11.90;;
40981;SDS011;26708;50.304;19.028;2022-10-19T06:13:41;17.27;;;9.77;;
40981;SDS011;26708;50.304;19.028;2022-10-19T06:16:43;15.80;;;8.77;;
40981;SDS011;26708;50.304;19.028;2022-10-19T06:19:46;15.95;;;7.88;;
40981;SDS011;26708;50.304;19.028;2022-10-19T06:22:47;15.18;;;8.65;;
40981;SDS011;26708;50.304;19.028;2022-10-19T06:25:47;14.90;;;8.85;;
40981;SDS011;26708;50.304;19.028;2022-10-19T06:28:48;19.63;;;9.50;;
40981;SDS011;26708;50.304;19.028;2022-10-19T06:31:50;18.75;;;9.00;;
40981;SDS011;26708;50.304;19.028;2022-10-19T06:34:53;19.13;;;9.18;;
40981;SDS011;26708;50.304;19.028;2022-10-19T06:37:55;21.63;;;10.05;;
40981;SDS011;26708;50.304;19.028;2022-10-19T06:40:57;19.33;;;10.77;;
40981;SDS011;26708;50.304;19.028;2022-10-19T06:43:58;19.83;;;10.73;;
40981;SDS011;26708;50.304;19.028;2022-10-19T06:47:00;21.80;;;10.40;;
40981;SDS011;26708;50.304;19.028;2022-10-19T06:50:01;26.95;;;10.68;;
40981;SDS011;26708;50.304;19.028;2022-10-19T06:53:03;21.98;;;11.77;;
40981;SDS011;26708;50.304;19.028;2022-10-19T06:56:04;27.08;;;11.77;;
40981;SDS011;26708;50.304;19.028;2022-10-19T06:59:06;19.77;;;10.90;;
40981;SDS011;26708;50.304;19.028;2022-10-19T07:02:09;19.90;;;11.25;;
40981;SDS011;26708;50.304;19.028;2022-10-19T07:05:11;18.88;;;11.07;;
40981;SDS011;26708;50.304;19.028;2022-10-19T07:08:12;20.83;;;12.23;;
40981;SDS011;26708;50.304;19.028;2022-10-19T07:11:17;16.10;;;10.27;;
40981;SDS011;26708;50.304;19.028;2022-10-19T07:14:19;18.85;;;10.77;;
40981;SDS011;26708;50.304;19.028;2022-10-19T07:17:21;16.35;;;10.05;;
40981;SDS011;26708;50.304;19.028;2022-10-19T07:20:21;15.18;;;8.68;;
40981;SDS011;26708;50.304;19.028;2022-10-19T07:23:24;16.05;;;8.68;;
40981;SDS011;26708;50.304;19.028;2022-10-19T07:26:26;17.38;;;9.13;;
40981;SDS011;26708;50.304;19.028;2022-10-19T07:29:29;21.10;;;9.52;;
40981;SDS011;26708;50.304;19.028;2022-10-19T07:36:05;13.27;;;8.05;;
40981;SDS011;26708;50.304;19.028;2022-10-19T07:39:08;13.15;;;8.18;;
40981;SDS011;26708;50.304;19.028;2022-10-19T07:42:10;18.55;;;9.05;;
40981;SDS011;26708;50.304;19.028;2022-10-19T07:45:10;23.73;;;8.98;;
40981;SDS011;26708;50.304;19.028;2022-10-19T07:48:11;16.70;;;8.73;;
40981;SDS011;26708;50.304;19.028;2022-10-19T07:51:13;15.20;;;8.05;;
40981;SDS011;26708;50.304;19.028;2022-10-19T07:54:15;12.65;;;7.80;;
40981;SDS011;26708;50.304;19.028;2022-10-19T07:57:17;14.07;;;7.38;;
40981;SDS011;26708;50.304;19.028;2022-10-19T08:00:18;13.68;;;6.93;;
40981;SDS011;26708;50.304;19.028;2022-10-19T08:03:18;13.55;;;5.68;;
40981;SDS011;26708;50.304;19.028;2022-10-19T08:06:19;10.85;;;5.88;;
40981;SDS011;26708;50.304;19.028;2022-10-19T08:09:20;13.88;;;6.15;;
40981;SDS011;26708;50.304;19.028;2022-10-19T08:12:21;8.95;;;4.53;;
40981;SDS011;26708;50.304;19.028;2022-10-19T08:15:25;13.63;;;5.13;;
40981;SDS011;26708;50.304;19.028;2022-10-19T08:18:26;12.18;;;4.40;;
40981;SDS011;26708;50.304;19.028;2022-10-19T08:21:27;11.98;;;4.35;;
40981;SDS011;26708;50.304;19.028;2022-10-19T08:24:29;14.05;;;4.55;;
40981;SDS011;26708;50.304;19.028;2022-10-19T08:27:30;8.63;;;3.05;;
40981;SDS011;26708;50.304;19.028;2022-10-19T08:30:32;5.72;;;2.83;;
40981;SDS011;26708;50.304;19.028;2022-10-19T08:33:35;12.57;;;3.95;;
40981;SDS011;26708;50.304;19.028;2022-10-19T08:36:35;9.85;;;3.40;;
40981;SDS011;26708;50.304;19.028;2022-10-19T08:39:36;5.15;;;2.35;;
40981;SDS011;26708;50.304;19.028;2022-10-19T08:49:01;12.60;;;3.75;;
40981;SDS011;26708;50.304;19.028;2022-10-19T08:52:21;6.88;;;3.67;;
40981;SDS011;26708;50.304;19.028;2022-10-19T08:55:33;12.95;;;3.88;;
40981;SDS011;26708;50.304;19.028;2022-10-19T09:01:55;13.98;;;5.35;;
40981;SDS011;26708;50.304;19.028;2022-10-19T09:05:01;6.82;;;3.85;;
40981;SDS011;26708;50.304;19.028;2022-10-19T09:08:06;8.27;;;3.67;;
40981;SDS011;26708;50.304;19.028;2022-10-19T09:11:09;9.15;;;3.58;;
40981;SDS011;26708;50.304;19.028;2022-10-19T09:14:33;10.50;;;3.75;;
40981;SDS011;26708;50.304;19.028;2022-10-19T09:17:43;8.77;;;4.13;;
40981;SDS011;26708;50.304;19.028;2022-10-19T09:20:45;10.90;;;4.10;;
40981;SDS011;26708;50.304;19.028;2022-10-19T09:24:03;11.55;;;3.55;;
40981;SDS011;26708;50.304;19.028;2022-10-19T09:27:15;11.85;;;4.38;;
40981;SDS011;26708;50.304;19.028;2022-10-19T09:30:22;10.55;;;4.45;;
40981;SDS011;26708;50.304;19.028;2022-10-19T09:33:29;8.43;;;4.53;;
40981;SDS011;26708;50.304;19.028;2022-10-19T09:36:40;14.15;;;5.07;;
40981;SDS011;26708;50.304;19.028;2022-10-19T09:39:43;5.72;;;2.88;;
40981;SDS011;26708;50.304;19.028;2022-10-19T09:42:44;7.65;;;3.90;;
40981;SDS011;26708;50.304;19.028;2022-10-19T09:49:00;16.60;;;5.97;;
40981;SDS011;26708;50.304;19.028;2022-10-19T09:52:03;13.05;;;5.03;;
40981;SDS011;26708;50.304;19.028;2022-10-19T10:04:38;8.50;;;4.65;;
40981;SDS011;26708;50.304;19.028;2022-10-19T10:07:40;7.20;;;3.15;;
40981;SDS011;26708;50.304;19.028;2022-10-19T10:10:42;8.48;;;3.17;;
40981;SDS011;26708;50.304;19.028;2022-10-19T10:13:49;6.88;;;2.95;;
40981;SDS011;26708;50.304;19.028;2022-10-19T10:16:56;6.82;;;2.65;;
40981;SDS011;26708;50.304;19.028;2022-10-19T10:20:04;8.02;;;2.05;;
40981;SDS011;26708;50.304;19.028;2022-10-19T10:23:24;5.05;;;2.75;;
40981;SDS011;26708;50.304;19.028;2022-10-19T10:26:28;6.20;;;2.72;;
40981;SDS011;26708;50.304;19.028;2022-10-19T10:29:35;9.02;;;2.88;;
40981;SDS011;26708;50.304;19.028;2022-10-19T10:32:40;7.78;;;3.05;;
40981;SDS011;26708;50.304;19.028;2022-10-19T10:35:48;9.50;;;3.30;;
40981;SDS011;26708;50.304;19.028;2022-10-19T10:38:55;6.23;;;2.50;;
40981;SDS011;26708;50.304;19.028;2022-10-19T10:42:04;8.70;;;2.95;;
40981;SDS011;26708;50.304;19.028;2022-10-19T11:01:14;5.53;;;2.75;;
40981;SDS011;26708;50.304;19.028;2022-10-19T11:04:21;7.50;;;3.10;;
40981;SDS011;26708;50.304;19.028;2022-10-19T11:07:25;6.25;;;2.80;;
40981;SDS011;26708;50.304;19.028;2022-10-19T11:10:30;7.90;;;2.95;;
40981;SDS011;26708;50.304;19.028;2022-10-19T11:16:48;6.85;;;2.60;;
40981;SDS011;26708;50.304;19.028;2022-10-19T11:19:52;6.97;;;2.97;;
40981;SDS011;26708;50.304;19.028;2022-10-19T11:22:59;6.97;;;2.33;;
40981;SDS011;26708;50.304;19.028;2022-10-19T11:29:45;6.75;;;3.13;;
40981;SDS011;26708;50.304;19.028;2022-10-19T11:33:19;9.95;;;4.00;;
40981;SDS011;26708;50.304;19.028;2022-10-19T11:39:50;7.03;;;2.45;;
40981;SDS011;26708;50.304;19.028;2022-10-19T11:43:05;7.50;;;2.65;;
40981;SDS011;26708;50.304;19.028;2022-10-19T11:52:55;6.45;;;2.40;;
40981;SDS011;26708;50.304;19.028;2022-10-19T12:06:22;7.75;;;3.80;;
40981;SDS011;26708;50.304;19.028;2022-10-19T12:12:55;6.07;;;2.38;;
40981;SDS011;26708;50.304;19.028;2022-10-19T12:16:00;5.75;;;1.50;;
40981;SDS011;26708;50.304;19.028;2022-10-19T12:19:04;6.55;;;2.17;;
40981;SDS011;26708;50.304;19.028;2022-10-19T12:22:13;5.65;;;2.03;;
40981;SDS011;26708;50.304;19.028;2022-10-19T12:25:18;4.93;;;1.92;;
40981;SDS011;26708;50.304;19.028;2022-10-19T12:28:21;5.07;;;1.63;;
40981;SDS011;26708;50.304;19.028;2022-10-19T12:31:27;3.97;;;1.73;;
40981;SDS011;26708;50.304;19.028;2022-10-19T12:51:12;7.40;;;4.07;;
40981;SDS011;26708;50.304;19.028;2022-10-19T12:54:15;10.85;;;3.80;;
40981;SDS011;26708;50.304;19.028;2022-10-19T12:57:25;8.68;;;3.15;;
40981;SDS011;26708;50.304;19.028;2022-10-19T13:00:31;8.95;;;2.88;;
40981;SDS011;26708;50.304;19.028;2022-10-19T13:03:37;3.97;;;2.33;;
40981;SDS011;26708;50.304;19.028;2022-10-19T13:10:00;9.40;;;3.53;;
40981;SDS011;26708;50.304;19.028;2022-10-19T13:13:04;4.85;;;2.38;;
40981;SDS011;26708;50.304;19.028;2022-10-19T13:17:00;5.60;;;2.22;;
40981;SDS011;26708;50.304;19.028;2022-10-19T13:26:49;12.27;;;4.78;;
40981;SDS011;26708;50.304;19.028;2022-10-19T13:29:47;8.10;;;4.15;;
40981;SDS011;26708;50.304;19.028;2022-10-19T13:32:49;7.22;;;4.15;;
40981;SDS011;26708;50.304;19.028;2022-10-19T13:36:04;11.77;;;3.33;;
40981;SDS011;26708;50.304;19.028;2022-10-19T13:39:10;9.93;;;1.90;;
40981;SDS011;26708;50.304;19.028;2022-10-19T13:42:22;7.03;;;2.72;;
40981;SDS011;26708;50.304;19.028;2022-10-19T13:45:26;6.15;;;2.67;;
40981;SDS011;26708;50.304;19.028;2022-10-19T14:11:19;5.95;;;3.42;;
40981;SDS011;26708;50.304;19.028;2022-10-19T14:14:27;5.00;;;2.10;;
40981;SDS011;26708;50.304;19.028;2022-10-19T14:22:22;9.30;;;4.95;;
40981;SDS011;26708;50.304;19.028;2022-10-19T14:25:26;4.37;;;2.03;;
40981;SDS011;26708;50.304;19.028;2022-10-19T14:28:28;6.78;;;2.83;;
40981;SDS011;26708;50.304;19.028;2022-10-19T14:31:31;7.13;;;3.20;;
40981;SDS011;26708;50.304;19.028;2022-10-19T14:39:29;5.13;;;2.67;;
40981;SDS011;26708;50.304;19.028;2022-10-19T14:42:40;7.13;;;3.63;;
40981;SDS011;26708;50.304;19.028;2022-10-19T14:45:43;4.00;;;2.90;;
40981;SDS011;26708;50.304;19.028;2022-10-19T14:48:47;8.77;;;3.70;;
40981;SDS011;26708;50.304;19.028;2022-10-19T14:51:59;6.88;;;3.10;;
40981;SDS011;26708;50.304;19.028;2022-10-19T14:55:15;12.23;;;3.88;;
40981;SDS011;26708;50.304;19.028;2022-10-19T14:58:18;7.03;;;3.97;;
40981;SDS011;26708;50.304;19.028;2022-10-19T15:01:22;6.40;;;3.53;;
40981;SDS011;26708;50.304;19.028;2022-10-19T15:04:24;14.63;;;5.40;;
40981;SDS011;26708;50.304;19.028;2022-10-19T15:07:35;12.73;;;6.43;;
40981;SDS011;26708;50.304;19.028;2022-10-19T15:10:41;11.45;;;6.97;;
40981;SDS011;26708;50.304;19.028;2022-10-19T15:13:45;10.45;;;5.55;;
40981;SDS011;26708;50.304;19.028;2022-10-19T15:16:52;6.85;;;4.00;;
40981;SDS011;26708;50.304;19.028;2022-10-19T15:25:29;4.60;;;2.55;;
40981;SDS011;26708;50.304;19.028;2022-10-19T15:28:36;10.25;;;4.25;;
40981;SDS011;26708;50.304;19.028;2022-10-19T15:31:38;10.15;;;4.32;;
40981;SDS011;26708;50.304;19.028;2022-10-19T15:34:39;9.05;;;4.35;;
40981;SDS011;26708;50.304;19.028;2022-10-19T15:37:42;11.57;;;6.32;;
40981;SDS011;26708;50.304;19.028;2022-10-19T15:40:44;16.13;;;7.03;;
40981;SDS011;26708;50.304;19.028;2022-10-19T15:54:28;25.75;;;11.25;;
40981;SDS011;26708;50.304;19.028;2022-10-19T16:00:36;32.63;;;12.25;;
40981;SDS011;26708;50.304;19.028;2022-10-19T16:03:37;36.50;;;14.52;;
40981;SDS011;26708;50.304;19.028;2022-10-19T16:06:39;29.27;;;13.23;;
40981;SDS011;26708;50.304;19.028;2022-10-19T16:09:42;31.58;;;11.20;;
40981;SDS011;26708;50.304;19.028;2022-10-19T16:12:42;30.50;;;10.45;;
40981;SDS011;26708;50.304;19.028;2022-10-19T16:15:43;25.55;;;9.93;;
40981;SDS011;26708;50.304;19.028;2022-10-19T16:18:44;18.85;;;9.25;;
40981;SDS011;26708;50.304;19.028;2022-10-19T16:21:45;15.10;;;8.38;;
40981;SDS011;26708;50.304;19.028;2022-10-19T16:24:46;22.23;;;10.07;;
40981;SDS011;26708;50.304;19.028;2022-10-19T16:27:47;25.55;;;9.73;;
40981;SDS011;26708;50.304;19.028;2022-10-19T16:30:51;15.88;;;8.50;;
40981;SDS011;26708;50.304;19.028;2022-10-19T16:38:32;11.70;;;5.88;;
40981;SDS011;26708;50.304;19.028;2022-10-19T16:41:33;13.80;;;5.90;;
40981;SDS011;26708;50.304;19.028;2022-10-19T16:44:34;11.30;;;5.72;;
40981;SDS011;26708;50.304;19.028;2022-10-19T16:47:35;16.42;;;6.50;;
40981;SDS011;26708;50.304;19.028;2022-10-19T16:55:13;23.23;;;9.20;;
40981;SDS011;26708;50.304;19.028;2022-10-19T16:58:14;21.45;;;7.13;;
40981;SDS011;26708;50.304;19.028;2022-10-19T17:01:16;23.67;;;8.15;;
40981;SDS011;26708;50.304;19.028;2022-10-19T17:04:18;26.85;;;8.98;;
40981;SDS011;26708;50.304;19.028;2022-10-19T17:07:19;21.27;;;7.88;;
40981;SDS011;26708;50.304;19.028;2022-10-19T17:10:20;17.88;;;6.72;;
40981;SDS011;26708;50.304;19.028;2022-10-19T17:13:21;20.50;;;7.82;;
40981;SDS011;26708;50.304;19.028;2022-10-19T17:16:23;18.77;;;8.65;;
40981;SDS011;26708;50.304;19.028;2022-10-19T17:24:05;13.85;;;6.70;;
40981;SDS011;26708;50.304;19.028;2022-10-19T17:27:07;16.65;;;6.30;;
40981;SDS011;26708;50.304;19.028;2022-10-19T17:30:08;18.98;;;9.80;;
40981;SDS011;26708;50.304;19.028;2022-10-19T17:33:09;20.58;;;8.32;;
40981;SDS011;26708;50.304;19.028;2022-10-19T17:36:14;14.30;;;6.07;;
40981;SDS011;26708;50.304;19.028;2022-10-19T17:39:21;9.38;;;4.80;;
40981;SDS011;26708;50.304;19.028;2022-10-19T17:42:23;9.75;;;5.38;;
40981;SDS011;26708;50.304;19.028;2022-10-19T17:45:24;9.40;;;5.25;;
40981;SDS011;26708;50.304;19.028;2022-10-19T17:48:24;13.43;;;6.20;;
40981;SDS011;26708;50.304;19.028;2022-10-19T17:51:33;14.55;;;6.28;;
40981;SDS011;26708;50.304;19.028;2022-10-19T17:54:35;13.15;;;5.80;;
40981;SDS011;26708;50.304;19.028;2022-10-19T17:57:36;12.18;;;5.65;;
40981;SDS011;26708;50.304;19.028;2022-10-19T18:00:37;11.98;;;5.13;;
40981;SDS011;26708;50.304;19.028;2022-10-19T18:03:39;11.70;;;5.95;;
40981;SDS011;26708;50.304;19.028;2022-10-19T18:06:40;13.38;;;5.90;;
40981;SDS011;26708;50.304;19.028;2022-10-19T18:09:40;13.45;;;5.75;;
40981;SDS011;26708;50.304;19.028;2022-10-19T18:12:41;14.65;;;5.90;;
40981;SDS011;26708;50.304;19.028;2022-10-19T18:15:42;11.18;;;5.53;;
40981;SDS011;26708;50.304;19.028;2022-10-19T18:18:43;10.35;;;4.80;;
40981;SDS011;26708;50.304;19.028;2022-10-19T18:21:48;10.38;;;4.57;;
40981;SDS011;26708;50.304;19.028;2022-10-19T18:24:49;10.45;;;4.60;;
40981;SDS011;26708;50.304;19.028;2022-10-19T18:27:49;9.20;;;4.03;;
40981;SDS011;26708;50.304;19.028;2022-10-19T18:30:50;7.53;;;3.78;;
40981;SDS011;26708;50.304;19.028;2022-10-19T18:33:58;10.43;;;3.97;;
40981;SDS011;26708;50.304;19.028;2022-10-19T18:37:00;9.55;;;4.85;;
40981;SDS011;26708;50.304;19.028;2022-10-19T18:40:01;8.50;;;4.40;;
40981;SDS011;26708;50.304;19.028;2022-10-19T18:43:03;9.32;;;4.05;;
40981;SDS011;26708;50.304;19.028;2022-10-19T18:46:05;8.45;;;3.10;;
40981;SDS011;26708;50.304;19.028;2022-10-19T18:49:09;11.45;;;3.58;;
40981;SDS011;26708;50.304;19.028;2022-10-19T18:52:10;9.43;;;3.83;;
40981;SDS011;26708;50.304;19.028;2022-10-19T18:55:11;39.13;;;6.20;;
40981;SDS011;26708;50.304;19.028;2022-10-19T18:58:12;10.13;;;4.25;;
40981;SDS011;26708;50.304;19.028;2022-10-19T19:04:15;7.43;;;3.13;;
40981;SDS011;26708;50.304;19.028;2022-10-19T19:07:16;8.65;;;3.45;;
40981;SDS011;26708;50.304;19.028;2022-10-19T19:10:17;9.30;;;3.40;;
40981;SDS011;26708;50.304;19.028;2022-10-19T19:13:18;5.82;;;3.03;;
40981;SDS011;26708;50.304;19.028;2022-10-19T19:16:20;10.05;;;4.25;;
40981;SDS011;26708;50.304;19.028;2022-10-19T19:19:21;10.30;;;5.03;;
40981;SDS011;26708;50.304;19.028;2022-10-19T19:22:24;8.63;;;4.10;;
40981;SDS011;26708;50.304;19.028;2022-10-19T19:25:25;11.35;;;4.22;;
40981;SDS011;26708;50.304;19.028;2022-10-19T19:28:26;9.15;;;4.18;;
40981;SDS011;26708;50.304;19.028;2022-10-19T19:31:27;15.88;;;5.57;;
40981;SDS011;26708;50.304;19.028;2022-10-19T19:34:28;10.07;;;4.55;;
40981;SDS011;26708;50.304;19.028;2022-10-19T19:37:29;13.40;;;5.22;;
40981;SDS011;26708;50.304;19.028;2022-10-19T19:40:30;11.70;;;5.35;;
40981;SDS011;26708;50.304;19.028;2022-10-19T19:43:31;14.57;;;5.93;;
40981;SDS011;26708;50.304;19.028;2022-10-19T19:46:34;14.18;;;5.53;;
40981;SDS011;26708;50.304;19.028;2022-10-19T19:49:45;11.65;;;5.03;;
40981;SDS011;26708;50.304;19.028;2022-10-19T19:52:46;13.23;;;5.43;;
40981;SDS011;26708;50.304;19.028;2022-10-19T19:55:48;10.90;;;4.90;;
40981;SDS011;26708;50.304;19.028;2022-10-19T19:58:52;13.68;;;6.05;;
40981;SDS011;26708;50.304;19.028;2022-10-19T20:01:55;13.57;;;6.18;;
40981;SDS011;26708;50.304;19.028;2022-10-19T20:04:55;17.83;;;7.40;;
40981;SDS011;26708;50.304;19.028;2022-10-19T20:07:56;22.85;;;7.88;;
40981;SDS011;26708;50.304;19.028;2022-10-19T20:11:01;18.58;;;7.10;;
40981;SDS011;26708;50.304;19.028;2022-10-19T20:14:03;20.83;;;7.03;;
40981;SDS011;26708;50.304;19.028;2022-10-19T20:17:04;21.05;;;7.82;;
40981;SDS011;26708;50.304;19.028;2022-10-19T20:20:05;17.90;;;6.88;;
40981;SDS011;26708;50.304;19.028;2022-10-19T20:23:08;17.58;;;7.53;;
40981;SDS011;26708;50.304;19.028;2022-10-19T20:26:13;18.02;;;7.57;;
40981;SDS011;26708;50.304;19.028;2022-10-19T20:29:15;13.55;;;6.82;;
40981;SDS011;26708;50.304;19.028;2022-10-19T20:32:16;20.73;;;8.20;;
40981;SDS011;26708;50.304;19.028;2022-10-19T20:35:18;17.48;;;7.70;;
40981;SDS011;26708;50.304;19.028;2022-10-19T20:38:18;19.23;;;8.48;;
40981;SDS011;26708;50.304;19.028;2022-10-19T20:41:20;25.05;;;9.13;;
40981;SDS011;26708;50.304;19.028;2022-10-19T20:44:22;22.58;;;8.85;;
40981;SDS011;26708;50.304;19.028;2022-10-19T20:47:22;16.30;;;7.57;;
40981;SDS011;26708;50.304;19.028;2022-10-19T20:50:24;20.90;;;8.27;;
40981;SDS011;26708;50.304;19.028;2022-10-19T20:53:25;19.40;;;7.88;;
40981;SDS011;26708;50.304;19.028;2022-10-19T20:56:27;17.40;;;7.28;;
40981;SDS011;26708;50.304;19.028;2022-10-19T20:59:30;17.55;;;7.40;;
40981;SDS011;26708;50.304;19.028;2022-10-19T21:02:32;20.40;;;7.15;;
40981;SDS011;26708;50.304;19.028;2022-10-19T21:05:36;18.15;;;6.65;;
40981;SDS011;26708;50.304;19.028;2022-10-19T21:08:37;18.80;;;6.57;;
40981;SDS011;26708;50.304;19.028;2022-10-19T21:11:40;17.48;;;6.85;;
40981;SDS011;26708;50.304;19.028;2022-10-19T21:14:43;13.93;;;5.88;;